createdAt,value
2022-11-16T00:01:39.668Z,4.72
2022-11-16T00:07:02.882Z,4.10
2022-11-16T00:12:24.702Z,4.38
2022-11-16T00:17:46.398Z,4.75
2022-11-16T00:23:08.092Z,5.50
2022-11-16T00:28:29.872Z,5.25
2022-11-16T00:33:52.507Z,5.32
2022-11-16T00:39:15.930Z,4.68
2022-11-16T00:44:37.623Z,4.72
2022-11-16T00:49:59.309Z,5.90
2022-11-16T00:55:21.080Z,5.15
2022-11-16T01:00:43.549Z,5.43
2022-11-16T01:06:08.187Z,6.03
2022-11-16T01:11:48.660Z,6.20
2022-11-16T01:17:10.500Z,6.38
2022-11-16T01:22:35.351Z,6.00
2022-11-16T01:27:57.053Z,6.65
2022-11-16T01:33:18.747Z,6.38
2022-11-16T01:38:42.337Z,6.00
2022-11-16T01:44:07.355Z,5.65
2022-11-16T01:49:32.637Z,6.00
2022-11-16T01:54:55.267Z,5.90
2022-11-16T02:00:17.973Z,5.80
2022-11-16T02:06:04.336Z,6.40
2022-11-16T02:11:38.137Z,5.95
2022-11-16T02:17:16.409Z,5.40
2022-11-16T02:22:56.842Z,5.00
2022-11-16T02:28:32.191Z,4.72
2022-11-16T02:33:56.898Z,4.20
2022-11-16T02:39:21.026Z,4.35
2022-11-16T02:44:47.229Z,4.30
2022-11-16T02:50:16.237Z,3.90
2022-11-16T02:55:38.177Z,4.07
2022-11-16T03:01:05.961Z,3.88
2022-11-16T03:06:31.556Z,3.65
2022-11-16T03:11:59.822Z,4.03
2022-11-16T03:17:29.175Z,5.97
2022-11-16T03:22:56.559Z,5.28
2022-11-16T03:28:24.738Z,5.28
2022-11-16T03:33:50.736Z,5.15
2022-11-16T03:39:18.777Z,4.50
2022-11-16T03:44:42.064Z,4.45
2022-11-16T03:50:04.315Z,4.20
2022-11-16T03:55:25.992Z,4.95
2022-11-16T04:00:47.830Z,4.72
2022-11-16T04:06:29.127Z,4.40
2022-11-16T04:12:09.801Z,5.20
2022-11-16T04:17:50.025Z,5.97
2022-11-16T04:23:34.866Z,5.47
2022-11-16T04:28:56.535Z,5.70
2022-11-16T04:34:41.098Z,5.30
2022-11-16T04:40:04.264Z,4.00
2022-11-16T04:45:46.385Z,3.40
2022-11-16T04:51:08.061Z,2.90
2022-11-16T04:56:29.795Z,2.92
2022-11-16T05:02:09.984Z,2.47
2022-11-16T05:07:31.790Z,2.42
2022-11-16T05:12:53.579Z,2.38
2022-11-16T05:18:15.246Z,2.60
2022-11-16T05:23:55.350Z,2.78
2022-11-16T05:29:17.025Z,3.13
2022-11-16T05:34:39.169Z,2.90
2022-11-16T05:40:00.849Z,2.70
2022-11-16T05:45:22.532Z,2.88
2022-11-16T05:50:44.238Z,3.33
2022-11-16T05:56:06.690Z,3.30
2022-11-16T06:01:28.747Z,3.10
2022-11-16T06:06:50.469Z,2.65
2022-11-16T06:12:12.289Z,2.90
2022-11-16T06:17:34.015Z,3.60
2022-11-16T06:22:55.722Z,3.10
2022-11-16T06:28:17.427Z,3.00
2022-11-16T06:33:39.149Z,2.90
2022-11-16T06:39:01.223Z,3.20
2022-11-16T06:44:22.987Z,3.05
2022-11-16T06:49:45.334Z,2.22
2022-11-16T06:55:07.424Z,3.33
2022-11-16T07:00:29.136Z,3.17
2022-11-16T07:05:50.832Z,3.13
2022-11-16T07:11:12.664Z,3.05
2022-11-16T07:16:36.205Z,2.83
2022-11-16T07:21:57.889Z,3.03
2022-11-16T07:27:19.607Z,3.10
2022-11-16T07:32:42.924Z,3.05
2022-11-16T07:38:04.715Z,2.92
2022-11-16T07:43:27.748Z,2.60
2022-11-16T07:48:49.530Z,2.33
2022-11-16T07:54:12.974Z,2.15
2022-11-16T07:59:34.812Z,2.22
2022-11-16T08:04:56.545Z,1.60
2022-11-16T08:10:18.488Z,1.50
2022-11-16T08:15:40.387Z,1.60
2022-11-16T08:21:03.123Z,1.45
2022-11-16T08:26:24.947Z,1.30
2022-11-16T08:31:46.733Z,1.63
2022-11-16T08:37:08.442Z,1.40
2022-11-16T08:42:30.305Z,1.55
2022-11-16T08:48:03.248Z,1.50
2022-11-16T08:53:25.580Z,1.40
2022-11-16T08:58:48.245Z,1.50
2022-11-16T09:04:11.536Z,1.40
2022-11-16T09:09:33.259Z,1.70
2022-11-16T09:14:55.027Z,1.48
2022-11-16T09:20:16.752Z,1.30
2022-11-16T09:25:38.494Z,1.95
2022-11-16T09:31:02.325Z,1.50
2022-11-16T09:36:25.459Z,1.25
2022-11-16T09:42:08.796Z,1.05
2022-11-16T09:47:49.750Z,1.27
2022-11-16T09:53:33.769Z,1.27
2022-11-16T09:59:09.392Z,1.23
2022-11-16T10:05:11.611Z,1.05
2022-11-16T10:10:38.979Z,0.93
2022-11-16T10:16:13.556Z,1.15
2022-11-16T10:21:51.916Z,1.10
2022-11-16T10:27:27.590Z,1.30
2022-11-16T10:33:00.297Z,1.88
2022-11-16T10:38:27.518Z,1.48
2022-11-16T10:43:49.533Z,0.98
2022-11-16T10:49:39.913Z,1.20
2022-11-16T10:55:02.684Z,1.20
2022-11-16T11:00:46.029Z,0.90
2022-11-16T11:06:11.208Z,1.10
2022-11-16T11:11:51.358Z,0.60
2022-11-16T11:17:17.699Z,0.70
2022-11-16T11:23:02.841Z,0.90
2022-11-16T11:28:33.506Z,0.82
2022-11-16T11:33:59.414Z,0.88
2022-11-16T11:39:21.242Z,1.00
2022-11-16T11:44:44.540Z,1.35
2022-11-16T11:50:12.353Z,1.23
2022-11-16T11:55:34.323Z,1.17
2022-11-16T12:01:11.278Z,0.75
2022-11-16T12:06:45.784Z,0.93
2022-11-16T12:12:15.770Z,1.30
2022-11-16T12:18:14.904Z,0.88
2022-11-16T12:23:43.751Z,1.00
2022-11-16T12:29:19.017Z,1.02
2022-11-16T12:35:04.536Z,0.70
2022-11-16T12:40:33.096Z,1.10
2022-11-16T12:46:49.054Z,0.77
2022-11-16T12:52:56.512Z,1.10
2022-11-16T12:58:45.755Z,0.70
2022-11-16T13:04:18.215Z,0.63
2022-11-16T13:09:59.012Z,0.93
2022-11-16T13:15:24.855Z,0.90
2022-11-16T13:20:55.921Z,0.80
2022-11-16T13:26:30.155Z,0.80
2022-11-16T13:31:57.252Z,0.70
2022-11-16T13:37:34.260Z,0.73
2022-11-16T13:43:11.251Z,1.10
2022-11-16T13:48:37.005Z,1.20
2022-11-16T13:59:40.588Z,1.00
2022-11-16T14:05:41.583Z,0.90
2022-11-16T14:11:04.628Z,0.80
2022-11-16T14:16:26.382Z,0.80
2022-11-16T14:22:01.673Z,0.70
2022-11-16T14:27:56.833Z,1.10
2022-11-16T14:33:30.502Z,1.00
2022-11-16T14:38:52.207Z,0.93
2022-11-16T14:44:19.822Z,1.10
2022-11-16T14:49:43.129Z,1.20
2022-11-16T14:55:07.641Z,1.20
2022-11-16T15:00:30.239Z,1.70
2022-11-16T15:05:52.068Z,1.88
2022-11-16T15:11:57.166Z,2.85
2022-11-16T15:17:22.405Z,2.50
2022-11-16T15:22:46.170Z,2.17
2022-11-16T15:28:13.978Z,2.17
2022-11-16T15:33:38.286Z,1.50
2022-11-16T15:39:02.447Z,1.58
2022-11-16T15:44:24.647Z,2.20
2022-11-16T15:49:49.516Z,1.90
2022-11-16T15:55:23.865Z,1.60
2022-11-16T16:00:48.351Z,1.60
2022-11-16T16:06:15.723Z,1.30
2022-11-16T16:11:37.448Z,1.13
2022-11-16T16:17:00.376Z,1.73
2022-11-16T16:22:31.413Z,1.45
2022-11-16T16:27:53.067Z,1.55
2022-11-16T16:33:19.866Z,1.50
2022-11-16T16:38:41.628Z,1.77
2022-11-16T16:44:10.908Z,1.70
2022-11-16T16:49:32.771Z,2.10
2022-11-16T16:54:54.416Z,2.15
2022-11-16T17:00:16.724Z,2.30
2022-11-16T17:05:38.624Z,1.88
2022-11-16T17:11:00.304Z,2.33
2022-11-16T17:16:24.755Z,1.83
2022-11-16T17:21:46.576Z,2.30
2022-11-16T17:27:08.317Z,2.50
2022-11-16T17:32:30.297Z,2.50
2022-11-16T17:37:51.960Z,2.50
2022-11-16T17:43:13.647Z,2.50
2022-11-16T17:48:36.286Z,2.78
2022-11-16T17:53:58.049Z,2.70
2022-11-16T17:59:20.635Z,2.30
2022-11-16T18:04:49.661Z,3.05
2022-11-16T18:10:17.878Z,4.70
2022-11-16T18:15:42.505Z,3.90
2022-11-16T18:21:05.884Z,3.90
2022-11-16T18:26:27.593Z,3.58
2022-11-16T18:31:49.333Z,3.75
2022-11-16T18:37:11.327Z,4.55
2022-11-16T18:42:33.069Z,4.82
2022-11-16T18:47:54.866Z,5.10
2022-11-16T18:53:16.584Z,5.00
2022-11-16T18:58:54.424Z,5.43
2022-11-16T19:04:16.141Z,6.22
2022-11-16T19:09:37.895Z,3.95
2022-11-16T19:14:59.732Z,5.47
2022-11-16T19:20:21.428Z,4.38
2022-11-16T19:25:43.192Z,5.40
2022-11-16T19:31:15.083Z,5.05
2022-11-16T19:36:37.238Z,7.90
2022-11-16T19:41:58.965Z,5.40
2022-11-16T19:47:22.992Z,4.35
2022-11-16T19:52:45.258Z,4.40
2022-11-16T19:58:06.970Z,4.75
2022-11-16T20:03:29.819Z,5.40
2022-11-16T20:08:53.803Z,5.25
2022-11-16T20:14:15.699Z,5.00
2022-11-16T20:19:37.400Z,5.23
2022-11-16T20:24:59.221Z,5.03
2022-11-16T20:30:20.948Z,5.15
2022-11-16T20:35:42.761Z,6.40
2022-11-16T20:41:08.129Z,6.22
2022-11-16T20:46:32.255Z,5.10
2022-11-16T20:51:53.976Z,5.20
2022-11-16T20:57:15.767Z,5.22
2022-11-16T21:02:37.493Z,5.15
2022-11-16T21:07:59.597Z,4.63
2022-11-16T21:13:44.550Z,5.80
2022-11-16T21:19:07.113Z,4.25
2022-11-16T21:24:29.276Z,4.68
2022-11-16T21:29:50.970Z,5.15
2022-11-16T21:35:12.725Z,5.65
2022-11-16T21:40:34.447Z,3.75
2022-11-16T21:46:05.903Z,3.97
2022-11-16T21:51:27.787Z,4.00
2022-11-16T21:56:49.465Z,4.22
2022-11-16T22:02:11.762Z,6.97
2022-11-16T22:07:33.637Z,5.85
2022-11-16T22:12:55.337Z,4.82
2022-11-16T22:18:17.157Z,5.40
2022-11-16T22:23:39.327Z,5.32
2022-11-16T22:29:01.467Z,5.57
2022-11-16T22:34:23.474Z,4.93
2022-11-16T22:39:45.144Z,4.50
2022-11-16T22:45:07.131Z,4.97
2022-11-16T22:50:28.816Z,4.38
2022-11-16T22:55:50.576Z,4.00
2022-11-16T23:01:13.365Z,4.65
2022-11-16T23:06:35.313Z,4.60
2022-11-16T23:12:15.657Z,5.05
2022-11-16T23:17:37.413Z,4.50
2022-11-16T23:23:17.839Z,5.47
2022-11-16T23:28:40.705Z,5.68
2022-11-16T23:34:05.176Z,5.30
2022-11-16T23:39:26.854Z,4.80
2022-11-16T23:44:48.586Z,4.60
2022-11-16T23:50:10.305Z,4.70
2022-11-16T23:55:33.553Z,4.50
